In Rescue
 
Open Full Screen Window  High Contrast Mode
Wind Gusting 00 knots
07
July 24, 2024 5:24 PM EDT
Weather Information
Wind Direction
  290 °
Wind Speed
  07 kt (8 mph)
Wind Gust
  00 kt (0 mph)
Altimeter
30.11 in
Visibility
10 SM
Temperature
23° C
73° F
Dewpoint
16° C
61° F
Humidity
65%
1hr Rain Fall
00.00 in.
24hr Rain Fall
00.34 in.
Sky Condition
Overcast @ 6,000 ft
VFR

METAR KOZW 242124Z AUTO 29007KT 10SM OVC060 23/16 A3011 RMK AO2 T02330155

FAA Disclaimer: The data displayed is for advisory purposes only and is not to be used for flight planning or operations.